Time;durP1;ratioP1;P1;durP2;ratioP2;P2;SDS_P1;SDS_P2;PMS_P1;PMS_P2;Temp;Humidity;BMP_temperature;BMP_pressure;BME280_temperature;BME280_humidity;BME280_pressure;Samples;Min_cycle;Max_cycle;Signal;HPM_P1;HPM_P2
2021/09/04 00:02:05;;;;;;;;;;;8.20;89.70;;;;;;5014955;28;20362;-82
2021/09/04 00:04:30;;;;;;;;;;;8.20;89.90;;;;;;5013674;28;20370;-81
2021/09/04 00:06:56;;;;;;;;;;;8.20;89.90;;;;;;5014730;28;19905;-82
2021/09/04 00:09:22;;;;;;;;;;;8.20;90.00;;;;;;5019662;28;19905;-82
2021/09/04 00:11:48;;;;;;;;;;;8.30;90.20;;;;;;5021596;28;20366;-82
2021/09/04 00:14:14;;;;;;;;;;;8.30;90.10;;;;;;5016653;28;20290;-81
2021/09/04 00:16:40;;;;;;;;;;;8.30;90.10;;;;;;5016511;28;19910;-83
2021/09/04 00:19:05;;;;;;;;;;;8.20;89.80;;;;;;5010622;28;19931;-83
2021/09/04 00:21:31;;;;;;;;;;;8.20;89.90;;;;;;5013691;28;19912;-82
2021/09/04 00:23:57;;;;;;;;;;;8.20;89.80;;;;;;5019253;28;19909;-82
2021/09/04 00:26:24;;;;;;;;;;;8.20;90.00;;;;;;5013798;28;19951;-82
2021/09/04 00:28:50;;;;;;;;;;;8.30;90.10;;;;;;5022063;28;19906;-81
2021/09/04 00:31:16;;;;;;;;;;;8.30;89.90;;;;;;5019973;28;19951;-81
2021/09/04 00:33:41;;;;;;;;;;;8.30;90.00;;;;;;5015199;28;19912;-81
2021/09/04 00:36:07;;;;;;;;;;;8.30;89.80;;;;;;5014205;28;19906;-81
2021/09/04 00:38:33;;;;;;;;;;;8.20;89.20;;;;;;5014024;28;20351;-82
2021/09/04 00:40:58;;;;;;;;;;;8.20;89.30;;;;;;5014050;28;20346;-83
2021/09/04 00:43:24;;;;;;;;;;;8.20;89.50;;;;;;5013857;28;19910;-82
2021/09/04 00:45:50;;;;;;;;;;;8.20;89.40;;;;;;5013718;28;20382;-81
2021/09/04 00:48:16;;;;;;;;;;;8.10;89.30;;;;;;5015473;28;19964;-81
2021/09/04 00:50:41;;;;;;;;;;;8.10;89.00;;;;;;5013684;28;19906;-82
2021/09/04 00:53:07;;;;;;;;;;;8.10;89.00;;;;;;5013958;28;19996;-81
2021/09/04 00:55:33;;;;;;;;;;;8.10;89.00;;;;;;5014181;28;20359;-80
2021/09/04 00:57:59;;;;;;;;;;;8.10;88.40;;;;;;5014609;28;19920;-81
2021/09/04 01:00:24;;;;;;;;;;;8.10;88.50;;;;;;5013277;28;19905;-82
2021/09/04 01:02:50;;;;;;;;;;;8.10;88.80;;;;;;5014042;28;19956;-81
2021/09/04 01:05:16;;;;;;;;;;;8.10;89.00;;;;;;5013663;28;19963;-80
2021/09/04 01:07:42;;;;;;;;;;;8.10;89.40;;;;;;5013004;28;19905;-82
2021/09/04 01:10:08;;;;;;;;;;;8.20;89.90;;;;;;5013551;28;20000;-81
2021/09/04 01:12:34;;;;;;;;;;;8.20;90.10;;;;;;5011985;28;19912;-80
2021/09/04 01:15:00;;;;;;;;;;;8.20;89.60;;;;;;5013673;28;19941;-83
2021/09/04 01:17:25;;;;;;;;;;;8.20;89.00;;;;;;5013337;28;19921;-81
2021/09/04 01:19:51;;;;;;;;;;;8.20;89.30;;;;;;5013299;28;19924;-82
2021/09/04 01:22:17;;;;;;;;;;;8.20;89.80;;;;;;5009563;28;19909;-80
2021/09/04 01:24:49;;;;;;;;;;;8.10;89.90;;;;;;5013251;28;19912;-82
2021/09/04 01:27:18;;;;;;;;;;;8.10;89.80;;;;;;5012161;28;19960;-82
2021/09/04 01:29:44;;;;;;;;;;;8.20;90.10;;;;;;5013421;28;19905;-83
2021/09/04 01:32:10;;;;;;;;;;;8.20;90.20;;;;;;5013159;28;19966;-82
2021/09/04 01:34:36;;;;;;;;;;;8.20;90.20;;;;;;5012774;28;19968;-83
2021/09/04 01:37:01;;;;;;;;;;;8.20;90.20;;;;;;5013528;28;19921;-83
2021/09/04 01:39:27;;;;;;;;;;;8.20;90.20;;;;;;5012316;28;19905;-83
2021/09/04 01:41:53;;;;;;;;;;;8.20;90.30;;;;;;5014204;28;20366;-82
2021/09/04 01:44:18;;;;;;;;;;;8.30;90.30;;;;;;5015175;28;19917;-84
2021/09/04 01:46:44;;;;;;;;;;;8.20;90.30;;;;;;5013396;28;20001;-83
2021/09/04 01:49:10;;;;;;;;;;;8.10;90.20;;;;;;5013513;28;20039;-84
2021/09/04 01:51:35;;;;;;;;;;;8.10;90.10;;;;;;5010102;28;19910;-84
2021/09/04 01:54:01;;;;;;;;;;;8.10;90.00;;;;;;5013226;28;19912;-82
2021/09/04 01:56:26;;;;;;;;;;;8.10;89.90;;;;;;5012404;28;20334;-81
2021/09/04 01:58:52;;;;;;;;;;;8.00;89.90;;;;;;5012447;28;20294;-83
2021/09/04 02:01:18;;;;;;;;;;;8.10;90.00;;;;;;5008476;28;20347;-82
2021/09/04 02:03:43;;;;;;;;;;;8.10;90.00;;;;;;5013031;28;20400;-82
2021/09/04 02:06:09;;;;;;;;;;;8.10;90.10;;;;;;5013041;28;20318;-81
2021/09/04 02:08:35;;;;;;;;;;;8.10;90.00;;;;;;5012837;28;19936;-81
2021/09/04 02:11:00;;;;;;;;;;;8.10;89.30;;;;;;5013459;28;19905;-82
2021/09/04 02:13:28;;;;;;;;;;;8.10;89.80;;;;;;5021008;28;19905;-82
2021/09/04 02:15:54;;;;;;;;;;;8.10;90.00;;;;;;5025240;28;19906;-81
2021/09/04 02:18:20;;;;;;;;;;;8.10;90.10;;;;;;5016679;28;20311;-81
2021/09/04 02:20:47;;;;;;;;;;;8.10;90.20;;;;;;5014678;28;20127;-82
2021/09/04 02:23:12;;;;;;;;;;;8.10;90.30;;;;;;5014055;28;19905;-83
2021/09/04 02:25:38;;;;;;;;;;;8.10;90.20;;;;;;5014079;28;19909;-82
2021/09/04 02:28:04;;;;;;;;;;;8.10;90.40;;;;;;5012585;28;19905;-81
2021/09/04 02:30:30;;;;;;;;;;;8.10;90.40;;;;;;5012798;28;19909;-82
2021/09/04 02:32:55;;;;;;;;;;;8.10;90.40;;;;;;5012922;28;19909;-81
2021/09/04 02:35:21;;;;;;;;;;;8.10;90.50;;;;;;5013241;28;19909;-81
2021/09/04 02:37:47;;;;;;;;;;;8.10;90.50;;;;;;5012153;28;20011;-80
2021/09/04 02:40:12;;;;;;;;;;;8.10;90.40;;;;;;5015622;28;20009;-81
2021/09/04 02:42:38;;;;;;;;;;;8.00;90.50;;;;;;5014153;28;19916;-81
2021/09/04 02:45:04;;;;;;;;;;;8.00;90.50;;;;;;5012855;28;19917;-81
2021/09/04 02:47:30;;;;;;;;;;;8.10;90.50;;;;;;5013495;28;19905;-81
2021/09/04 02:49:55;;;;;;;;;;;8.10;90.50;;;;;;5013827;28;19977;-82
2021/09/04 02:52:21;;;;;;;;;;;8.10;90.40;;;;;;5018547;28;19917;-82
2021/09/04 02:54:47;;;;;;;;;;;8.00;90.40;;;;;;5013566;28;19912;-81
2021/09/04 02:57:12;;;;;;;;;;;8.10;90.50;;;;;;5025439;28;19993;-81
2021/09/04 02:59:38;;;;;;;;;;;8.10;90.60;;;;;;5017777;28;19952;-81
2021/09/04 03:02:04;;;;;;;;;;;8.00;90.50;;;;;;5015419;28;19909;-81
2021/09/04 03:04:29;;;;;;;;;;;8.00;90.50;;;;;;5013219;28;19916;-81
2021/09/04 03:06:55;;;;;;;;;;;8.00;90.50;;;;;;5013615;28;19909;-80
2021/09/04 03:09:20;;;;;;;;;;;8.10;90.50;;;;;;5015138;28;20386;-81
2021/09/04 03:11:46;;;;;;;;;;;8.10;90.40;;;;;;5017059;28;19937;-82
2021/09/04 03:14:12;;;;;;;;;;;8.10;90.40;;;;;;5022845;28;20015;-80
2021/09/04 03:16:37;;;;;;;;;;;8.10;90.40;;;;;;5019745;28;19909;-81
2021/09/04 03:19:03;;;;;;;;;;;8.10;90.40;;;;;;5016192;28;19906;-81
2021/09/04 03:21:29;;;;;;;;;;;8.10;90.30;;;;;;5006497;28;19908;-81
2021/09/04 03:23:54;;;;;;;;;;;8.10;90.30;;;;;;5007773;28;19909;-82
2021/09/04 03:26:20;;;;;;;;;;;8.10;90.30;;;;;;5007895;28;20314;-81
2021/09/04 03:28:46;;;;;;;;;;;8.10;90.10;;;;;;5010453;28;19932;-82
2021/09/04 03:31:11;;;;;;;;;;;8.10;90.20;;;;;;5016667;28;19905;-80
2021/09/04 03:33:37;;;;;;;;;;;8.10;90.50;;;;;;5016639;28;19956;-81
2021/09/04 03:36:04;;;;;;;;;;;8.10;90.10;;;;;;5016153;28;19912;-82
2021/09/04 03:38:30;;;;;;;;;;;8.10;90.20;;;;;;5016066;28;19921;-82
2021/09/04 03:40:56;;;;;;;;;;;8.20;90.20;;;;;;5012415;28;20030;-82
2021/09/04 03:43:21;;;;;;;;;;;8.30;90.20;;;;;;5015101;28;19952;-83
2021/09/04 03:45:47;;;;;;;;;;;8.30;90.10;;;;;;5015587;28;19912;-83
2021/09/04 03:48:13;;;;;;;;;;;8.30;90.00;;;;;;5004159;28;19940;-83
2021/09/04 03:50:38;;;;;;;;;;;8.30;89.90;;;;;;5015696;28;19909;-82
2021/09/04 03:53:04;;;;;;;;;;;8.40;89.90;;;;;;5017908;28;19909;-83
2021/09/04 03:55:29;;;;;;;;;;;8.40;89.80;;;;;;5015952;28;19909;-81
2021/09/04 03:57:55;;;;;;;;;;;8.40;89.70;;;;;;5015204;28;19983;-82
2021/09/04 04:00:21;;;;;;;;;;;8.40;89.50;;;;;;5008627;28;19906;-82
2021/09/04 04:02:46;;;;;;;;;;;8.40;89.50;;;;;;5015048;28;20445;-82
2021/09/04 04:05:12;;;;;;;;;;;8.30;89.50;;;;;;5015062;28;19906;-83
2021/09/04 04:07:38;;;;;;;;;;;8.30;89.70;;;;;;5014935;28;19906;-83
2021/09/04 04:10:04;;;;;;;;;;;8.30;89.90;;;;;;5006201;28;19952;-82
2021/09/04 04:12:30;;;;;;;;;;;8.30;90.10;;;;;;5013655;28;20391;-82
2021/09/04 04:14:55;;;;;;;;;;;8.20;90.30;;;;;;5015188;28;19944;-81
2021/09/04 04:17:21;;;;;;;;;;;8.30;90.60;;;;;;5017873;28;19913;-81
2021/09/04 04:19:47;;;;;;;;;;;8.30;90.80;;;;;;5028887;28;20355;-80
2021/09/04 04:22:12;;;;;;;;;;;8.30;90.60;;;;;;5021586;28;19952;-82
2021/09/04 04:24:38;;;;;;;;;;;8.30;90.80;;;;;;5016454;28;19909;-82
2021/09/04 04:27:05;;;;;;;;;;;8.40;90.80;;;;;;5015621;28;20315;-82
2021/09/04 04:29:31;;;;;;;;;;;8.40;90.80;;;;;;5017039;28;20007;-80
2021/09/04 04:31:56;;;;;;;;;;;8.40;90.80;;;;;;5014800;28;20003;-81
2021/09/04 04:34:22;;;;;;;;;;;8.40;90.80;;;;;;5013964;28;19913;-83
2021/09/04 04:36:48;;;;;;;;;;;8.30;90.90;;;;;;5014670;28;19961;-83
2021/09/04 04:39:14;;;;;;;;;;;8.40;91.00;;;;;;5014349;28;20278;-82
2021/09/04 04:41:39;;;;;;;;;;;8.40;91.10;;;;;;5014154;28;19969;-83
2021/09/04 04:44:05;;;;;;;;;;;8.40;91.40;;;;;;5014109;28;20396;-80
2021/09/04 04:46:31;;;;;;;;;;;8.40;91.40;;;;;;5014293;28;20367;-82
2021/09/04 04:48:58;;;;;;;;;;;8.40;91.70;;;;;;5014096;28;20436;-81
2021/09/04 04:51:24;;;;;;;;;;;8.40;91.50;;;;;;5013730;28;19909;-82
2021/09/04 04:53:50;;;;;;;;;;;8.40;91.50;;;;;;5014248;28;19905;-86
2021/09/04 04:56:16;;;;;;;;;;;8.20;91.70;;;;;;5014048;28;19909;-82
2021/09/04 04:58:41;;;;;;;;;;;8.20;91.90;;;;;;5013906;28;19924;-83
2021/09/04 05:01:07;;;;;;;;;;;8.10;92.00;;;;;;5014433;28;20333;-82
2021/09/04 05:03:33;;;;;;;;;;;8.10;92.40;;;;;;5014080;28;19905;-83
2021/09/04 05:05:59;;;;;;;;;;;8.10;92.40;;;;;;5014623;28;19912;-82
2021/09/04 05:08:26;;;;;;;;;;;8.10;92.60;;;;;;5014076;28;19924;-82
2021/09/04 05:10:51;;;;;;;;;;;8.20;92.70;;;;;;5013857;28;19909;-81
2021/09/04 05:13:17;;;;;;;;;;;8.20;92.70;;;;;;5001176;28;20274;-80
2021/09/04 05:15:43;;;;;;;;;;;8.20;92.60;;;;;;5012420;28;20347;-81
2021/09/04 05:18:08;;;;;;;;;;;8.20;92.60;;;;;;5013430;28;19913;-81
2021/09/04 05:20:34;;;;;;;;;;;8.20;92.60;;;;;;5013492;28;19914;-81
2021/09/04 05:23:00;;;;;;;;;;;8.20;92.60;;;;;;5013794;28;19939;-82
2021/09/04 05:25:25;;;;;;;;;;;8.30;92.70;;;;;;5015057;28;19963;-81
2021/09/04 05:27:51;;;;;;;;;;;8.30;92.80;;;;;;5013598;28;19905;-83
2021/09/04 05:30:16;;;;;;;;;;;8.30;92.80;;;;;;5013699;28;19905;-84
2021/09/04 05:32:42;;;;;;;;;;;8.40;93.00;;;;;;5011840;28;19909;-84
2021/09/04 05:35:08;;;;;;;;;;;8.40;93.00;;;;;;5013565;28;19906;-83
2021/09/04 05:37:34;;;;;;;;;;;8.50;93.00;;;;;;5013795;28;20003;-83
2021/09/04 05:39:59;;;;;;;;;;;8.40;92.60;;;;;;5013784;28;20014;-83
2021/09/04 05:42:25;;;;;;;;;;;8.50;92.60;;;;;;5013504;28;19968;-83
2021/09/04 05:44:51;;;;;;;;;;;8.50;92.50;;;;;;5013139;28;19917;-84
2021/09/04 05:47:16;;;;;;;;;;;8.60;92.50;;;;;;5013524;28;19905;-84
2021/09/04 05:49:42;;;;;;;;;;;8.70;92.40;;;;;;5001128;28;20278;-84
2021/09/04 05:52:08;;;;;;;;;;;8.70;92.80;;;;;;5011360;28;20334;-83
2021/09/04 05:54:33;;;;;;;;;;;8.70;92.60;;;;;;5013168;28;19905;-82
2021/09/04 05:56:59;;;;;;;;;;;8.60;92.70;;;;;;5014998;28;19917;-82
2021/09/04 05:59:25;;;;;;;;;;;8.50;92.70;;;;;;5016478;28;19913;-82
2021/09/04 06:01:50;;;;;;;;;;;8.60;92.80;;;;;;5013069;28;19979;-82
2021/09/04 06:04:16;;;;;;;;;;;8.60;92.90;;;;;;5017543;28;19912;-82
2021/09/04 06:06:42;;;;;;;;;;;8.80;93.00;;;;;;5013208;28;19967;-82
2021/09/04 06:09:07;;;;;;;;;;;8.90;92.70;;;;;;5013165;28;19905;-84
2021/09/04 06:11:33;;;;;;;;;;;9.00;92.50;;;;;;5013339;28;19917;-83
2021/09/04 06:13:59;;;;;;;;;;;9.70;93.20;;;;;;5012928;28;19967;-83
2021/09/04 06:16:25;;;;;;;;;;;10.10;92.30;;;;;;5011381;28;19913;-81
2021/09/04 06:18:51;;;;;;;;;;;10.70;91.90;;;;;;5012732;28;19913;-83
2021/09/04 06:21:17;;;;;;;;;;;11.00;90.30;;;;;;5011688;28;19909;-83
2021/09/04 06:23:42;;;;;;;;;;;11.80;90.00;;;;;;5019935;28;20264;-82
2021/09/04 06:26:08;;;;;;;;;;;12.10;85.90;;;;;;5026283;28;20398;-86
2021/09/04 06:28:34;;;;;;;;;;;12.10;83.60;;;;;;5016204;28;19912;-84
2021/09/04 06:31:00;;;;;;;;;;;12.10;83.10;;;;;;5013643;28;20000;-81
2021/09/04 06:33:25;;;;;;;;;;;13.00;80.90;;;;;;5013540;28;20310;-84
2021/09/04 06:35:51;;;;;;;;;;;13.30;74.70;;;;;;5013542;28;20371;-83
2021/09/04 06:38:16;;;;;;;;;;;14.10;72.50;;;;;;5012602;28;19917;-84
2021/09/04 06:40:42;;;;;;;;;;;14.90;70.90;;;;;;5013152;28;19909;-83
2021/09/04 06:43:08;;;;;;;;;;;15.30;70.50;;;;;;5016466;28;19912;-83
2021/09/04 06:45:33;;;;;;;;;;;15.60;63.60;;;;;;5020582;28;19917;-84
2021/09/04 06:47:59;;;;;;;;;;;14.90;63.70;;;;;;5002600;28;19906;-84
2021/09/04 06:50:25;;;;;;;;;;;15.20;67.00;;;;;;5016285;28;19909;-85
2021/09/04 06:52:51;;;;;;;;;;;16.30;65.70;;;;;;5016368;28;19917;-84
2021/09/04 06:55:17;;;;;;;;;;;16.60;61.70;;;;;;5002224;28;20385;-84
2021/09/04 06:57:43;;;;;;;;;;;16.50;62.40;;;;;;5017260;28;19921;-84
2021/09/04 07:00:09;;;;;;;;;;;16.40;62.60;;;;;;5017978;28;19905;-85
2021/09/04 07:02:34;;;;;;;;;;;16.30;60.50;;;;;;5016314;28;19906;-83
2021/09/04 07:05:00;;;;;;;;;;;15.80;59.90;;;;;;5015741;28;19971;-83
2021/09/04 07:07:26;;;;;;;;;;;15.20;59.40;;;;;;5012789;28;20291;-86
2021/09/04 07:09:51;;;;;;;;;;;14.90;58.50;;;;;;4999261;28;20239;-82
2021/09/04 07:12:17;;;;;;;;;;;14.10;59.30;;;;;;5001717;28;19949;-84
2021/09/04 07:14:43;;;;;;;;;;;13.40;61.60;;;;;;4997133;28;19972;-83
2021/09/04 07:17:08;;;;;;;;;;;14.00;64.00;;;;;;5002227;28;20264;-83
2021/09/04 07:19:34;;;;;;;;;;;15.60;63.50;;;;;;5016034;28;19905;-83
2021/09/04 07:22:00;;;;;;;;;;;17.30;61.40;;;;;;5015144;28;19949;-85
2021/09/04 07:24:25;;;;;;;;;;;18.60;57.50;;;;;;5015772;28;19957;-83
2021/09/04 07:26:51;;;;;;;;;;;19.90;56.60;;;;;;5014250;28;19979;-84
2021/09/04 07:29:17;;;;;;;;;;;20.90;53.70;;;;;;5009221;28;19910;-83
2021/09/04 07:31:42;;;;;;;;;;;22.00;52.00;;;;;;5007364;28;20046;-82
2021/09/04 07:34:08;;;;;;;;;;;22.30;48.70;;;;;;5007475;28;19993;-82
2021/09/04 07:36:33;;;;;;;;;;;21.80;44.80;;;;;;5016362;28;19906;-87
2021/09/04 07:38:59;;;;;;;;;;;21.20;45.40;;;;;;5016068;28;20301;-86
2021/09/04 07:41:25;;;;;;;;;;;21.60;47.00;;;;;;5013983;28;19913;-87
2021/09/04 07:43:50;;;;;;;;;;;21.40;46.20;;;;;;5017046;28;20297;-85
2021/09/04 07:46:16;;;;;;;;;;;21.50;45.00;;;;;;5016275;28;19905;-87
2021/09/04 07:48:42;;;;;;;;;;;22.30;46.40;;;;;;5016323;28;19933;-81
2021/09/04 07:51:07;;;;;;;;;;;23.40;45.70;;;;;;5018068;28;19906;-87
2021/09/04 07:53:33;;;;;;;;;;;22.70;42.70;;;;;;5016368;28;19932;-84
2021/09/04 07:55:59;;;;;;;;;;;21.40;43.20;;;;;;5009061;28;19905;-86
2021/09/04 07:58:25;;;;;;;;;;;19.50;44.50;;;;;;5016211;28;19913;-84
2021/09/04 08:00:50;;;;;;;;;;;16.80;48.30;;;;;;5015525;28;19916;-85
2021/09/04 08:03:16;;;;;;;;;;;14.60;52.90;;;;;;5012589;28;19976;-84
2021/09/04 08:05:42;;;;;;;;;;;13.30;57.00;;;;;;5009669;28;20315;-87
2021/09/04 08:08:07;;;;;;;;;;;13.50;61.20;;;;;;5011157;28;19964;-84
2021/09/04 08:10:33;;;;;;;;;;;14.80;64.50;;;;;;5020819;28;19913;-86
2021/09/04 08:12:59;;;;;;;;;;;16.30;61.50;;;;;;5014822;28;20271;-85
2021/09/04 08:15:31;;;;;;;;;;;17.90;58.00;;;;;;5014557;28;20383;-85
2021/09/04 08:17:56;;;;;;;;;;;19.30;52.60;;;;;;5012628;28;19936;-84
2021/09/04 08:20:22;;;;;;;;;;;20.60;50.40;;;;;;5014392;28;19909;-84
2021/09/04 08:22:47;;;;;;;;;;;21.30;46.10;;;;;;5014745;28;19905;-85
2021/09/04 08:25:13;;;;;;;;;;;20.00;46.20;;;;;;5014862;28;20005;-85
2021/09/04 08:27:39;;;;;;;;;;;18.40;48.50;;;;;;5016317;28;19913;-82
2021/09/04 08:30:05;;;;;;;;;;;17.10;51.10;;;;;;5022759;28;19909;-84
2021/09/04 08:32:30;;;;;;;;;;;16.30;54.40;;;;;;5020467;28;19905;-84
2021/09/04 08:34:56;;;;;;;;;;;16.10;55.80;;;;;;5016184;28;19906;-85
2021/09/04 08:37:21;;;;;;;;;;;16.70;57.60;;;;;;5014871;28;19913;-85
2021/09/04 08:39:47;;;;;;;;;;;18.40;55.70;;;;;;5014477;28;19940;-83
2021/09/04 08:42:13;;;;;;;;;;;19.90;52.80;;;;;;5014868;28;19910;-85
2021/09/04 08:44:39;;;;;;;;;;;21.60;47.20;;;;;;5013035;28;19917;-83
2021/09/04 08:47:04;;;;;;;;;;;21.80;45.40;;;;;;5014644;28;19940;-83
2021/09/04 08:49:32;;;;;;;;;;;20.90;45.70;;;;;;5015649;28;19928;-83
2021/09/04 08:51:58;;;;;;;;;;;20.70;46.00;;;;;;5013291;28;19905;-84
2021/09/04 08:54:24;;;;;;;;;;;20.20;45.50;;;;;;5014462;28;19905;-83
2021/09/04 08:56:49;;;;;;;;;;;20.30;46.20;;;;;;5012546;28;19945;-82
2021/09/04 08:59:15;;;;;;;;;;;19.80;45.80;;;;;;5014807;28;19917;-83
2021/09/04 09:01:44;;;;;;;;;;;18.90;46.30;;;;;;5014184;28;19906;-82
2021/09/04 09:04:13;;;;;;;;;;;19.00;47.80;;;;;;5014813;28;19929;-82
2021/09/04 09:06:38;;;;;;;;;;;18.90;47.60;;;;;;5015843;28;19905;-85
2021/09/04 09:09:14;;;;;;;;;;;19.10;48.70;;;;;;5014454;28;20282;-84
2021/09/04 09:11:39;;;;;;;;;;;18.70;48.60;;;;;;5013682;28;19928;-84
2021/09/04 09:14:05;;;;;;;;;;;17.90;48.40;;;;;;4998661;28;20367;-85
2021/09/04 09:16:30;;;;;;;;;;;16.90;50.20;;;;;;5012773;28;20421;-83
2021/09/04 09:19:01;;;;;;;;;;;15.60;53.50;;;;;;5013494;28;19913;-84
2021/09/04 09:21:31;;;;;;;;;;;13.90;57.60;;;;;;5013639;28;19905;-84
2021/09/04 09:24:10;;;;;;;;;;;12.50;61.80;;;;;;5011817;28;20364;-85
2021/09/04 09:26:44;;;;;;;;;;;11.90;66.10;;;;;;5013868;28;19921;-83
2021/09/04 09:29:16;;;;;;;;;;;12.40;69.20;;;;;;5012577;28;19956;-83
2021/09/04 09:31:41;;;;;;;;;;;13.20;69.50;;;;;;5013428;28;19906;-84
2021/09/04 09:34:08;;;;;;;;;;;13.90;69.20;;;;;;5001501;28;19905;-85
2021/09/04 09:36:47;;;;;;;;;;;15.40;68.30;;;;;;5011601;28;19909;-83
2021/09/04 09:39:13;;;;;;;;;;;17.40;64.20;;;;;;5013081;28;19920;-83
2021/09/04 09:41:51;;;;;;;;;;;19.50;58.30;;;;;;5011873;28;20359;-86
2021/09/04 09:44:18;;;;;;;;;;;20.80;51.80;;;;;;5013429;28;19917;-84
2021/09/04 09:46:47;;;;;;;;;;;22.10;50.40;;;;;;5013342;28;19968;-86
2021/09/04 09:49:13;;;;;;;;;;;23.30;48.10;;;;;;5013282;28;19909;-84
2021/09/04 09:51:41;;;;;;;;;;;23.20;40.70;;;;;;5013108;28;19996;-85
2021/09/04 09:54:07;;;;;;;;;;;22.60;43.80;;;;;;5013330;28;19968;-85
2021/09/04 09:56:33;;;;;;;;;;;23.10;44.00;;;;;;5011547;28;20019;-84
2021/09/04 09:58:59;;;;;;;;;;;23.40;42.60;;;;;;5013232;28;20396;-86
2021/09/04 10:01:25;;;;;;;;;;;23.20;40.90;;;;;;5011538;28;19925;-86
2021/09/04 10:03:52;;;;;;;;;;;22.80;41.70;;;;;;5014367;28;19910;-84
2021/09/04 10:06:18;;;;;;;;;;;22.20;42.50;;;;;;5018735;28;19905;-83
2021/09/04 10:08:44;;;;;;;;;;;21.20;43.90;;;;;;5013045;28;19943;-84
2021/09/04 10:11:09;;;;;;;;;;;19.70;45.10;;;;;;5011714;28;19949;-84
2021/09/04 10:13:35;;;;;;;;;;;19.10;48.50;;;;;;5012987;28;20000;-83
2021/09/04 10:16:01;;;;;;;;;;;19.10;48.80;;;;;;5005993;28;19905;-86
2021/09/04 10:18:27;;;;;;;;;;;19.30;48.50;;;;;;5006983;28;20398;-84
2021/09/04 10:21:00;;;;;;;;;;;19.80;46.00;;;;;;5003147;28;19984;-82
2021/09/04 10:23:28;;;;;;;;;;;19.10;46.00;;;;;;5016791;28;19916;-82
2021/09/04 10:25:54;;;;;;;;;;;17.90;47.70;;;;;;5016706;28;20003;-84
2021/09/04 10:28:20;;;;;;;;;;;16.90;49.60;;;;;;5017703;28;19931;-83
2021/09/04 10:30:52;;;;;;;;;;;16.10;51.90;;;;;;5017710;28;19909;-84
2021/09/04 10:33:17;;;;;;;;;;;15.30;53.50;;;;;;5019352;28;19905;-84
2021/09/04 10:35:46;;;;;;;;;;;14.70;55.40;;;;;;5024318;28;19992;-82
2021/09/04 10:38:18;;;;;;;;;;;14.20;57.00;;;;;;5021692;28;19914;-84
2021/09/04 10:40:44;;;;;;;;;;;14.00;57.90;;;;;;5018488;28;19911;-84
2021/09/04 10:43:10;;;;;;;;;;;14.00;58.20;;;;;;5016363;28;20012;-84
2021/09/04 10:45:37;;;;;;;;;;;14.00;58.30;;;;;;5016805;28;19956;-86
2021/09/04 10:48:12;;;;;;;;;;;13.90;58.60;;;;;;5015589;28;19905;-85
2021/09/04 10:50:38;;;;;;;;;;;13.70;58.30;;;;;;5015517;28;20422;-84
2021/09/04 10:53:07;;;;;;;;;;;13.50;58.60;;;;;;5016536;28;19951;-83
2021/09/04 10:55:34;;;;;;;;;;;13.30;59.30;;;;;;5018191;28;19913;-85
2021/09/04 10:58:03;;;;;;;;;;;13.10;60.10;;;;;;5018092;28;20420;-85
2021/09/04 11:00:29;;;;;;;;;;;13.10;60.60;;;;;;5018627;28;19905;-86
2021/09/04 11:03:01;;;;;;;;;;;13.20;61.00;;;;;;5016465;28;19921;-85
2021/09/04 11:05:27;;;;;;;;;;;13.40;61.10;;;;;;5016054;28;19969;-85
2021/09/04 11:08:00;;;;;;;;;;;13.70;60.20;;;;;;5015998;28;19913;-83
2021/09/04 11:10:26;;;;;;;;;;;13.90;59.60;;;;;;5015914;28;20298;-83
2021/09/04 11:13:11;;;;;;;;;;;14.00;59.00;;;;;;5016057;28;20345;-84
2021/09/04 11:15:36;;;;;;;;;;;13.90;59.60;;;;;;5012607;28;20017;-83
2021/09/04 11:18:02;;;;;;;;;;;13.30;62.20;;;;;;5006511;28;20016;-83
2021/09/04 11:20:28;;;;;;;;;;;12.30;64.70;;;;;;5015836;28;19995;-86
2021/09/04 11:22:54;;;;;;;;;;;11.20;68.20;;;;;;5016189;28;19912;-85
2021/09/04 11:25:20;;;;;;;;;;;10.50;71.90;;;;;;5016240;28;20302;-85
2021/09/04 11:27:46;;;;;;;;;;;10.30;73.90;;;;;;5014823;28;20384;-87
2021/09/04 11:30:18;;;;;;;;;;;10.10;74.70;;;;;;5016112;28;19905;-87
2021/09/04 11:32:44;;;;;;;;;;;10.20;76.00;;;;;;5016889;28;19906;-85
2021/09/04 11:35:10;;;;;;;;;;;10.20;76.70;;;;;;5026294;28;19909;-84
2021/09/04 11:37:36;;;;;;;;;;;10.20;77.50;;;;;;5024587;28;19917;-83
2021/09/04 11:40:05;;;;;;;;;;;10.10;78.50;;;;;;5017802;28;19952;-84
2021/09/04 11:42:32;;;;;;;;;;;10.10;78.70;;;;;;5017199;28;19905;-83
2021/09/04 11:44:59;;;;;;;;;;;10.10;79.10;;;;;;5016713;28;19964;-86
2021/09/04 11:47:26;;;;;;;;;;;10.10;79.50;;;;;;5017251;28;19967;-84
2021/09/04 11:49:53;;;;;;;;;;;10.20;79.90;;;;;;5015764;28;19945;-84
2021/09/04 11:52:20;;;;;;;;;;;10.20;79.40;;;;;;5014704;28;20046;-83
2021/09/04 11:54:45;;;;;;;;;;;10.40;79.90;;;;;;5014319;28;20386;-85
2021/09/04 11:57:28;;;;;;;;;;;10.80;80.30;;;;;;5015165;28;20075;-84
2021/09/04 12:00:00;;;;;;;;;;;11.10;79.20;;;;;;5009939;28;19913;-86
2021/09/04 12:02:26;;;;;;;;;;;11.20;79.10;;;;;;5015512;28;19913;-86
2021/09/04 12:04:52;;;;;;;;;;;11.10;79.10;;;;;;5015717;28;19906;-83
2021/09/04 12:07:18;;;;;;;;;;;11.00;79.10;;;;;;5015878;28;20282;-82
2021/09/04 12:09:44;;;;;;;;;;;11.00;79.10;;;;;;5016565;28;20003;-82
2021/09/04 12:12:10;;;;;;;;;;;11.00;79.50;;;;;;5014752;28;19936;-83
2021/09/04 12:14:36;;;;;;;;;;;10.90;79.70;;;;;;5015063;28;19913;-83
2021/09/04 12:17:01;;;;;;;;;;;11.00;79.80;;;;;;5014410;28;19920;-83
2021/09/04 12:19:36;;;;;;;;;;;11.00;80.20;;;;;;5013616;28;19905;-84
2021/09/04 12:22:01;;;;;;;;;;;11.10;80.30;;;;;;5015217;28;19997;-86
2021/09/04 12:24:31;;;;;;;;;;;11.30;80.30;;;;;;5008221;28;19952;-85
2021/09/04 12:26:57;;;;;;;;;;;11.30;79.60;;;;;;5008171;28;19905;-84
2021/09/04 12:29:26;;;;;;;;;;;11.10;79.60;;;;;;5013080;28;19909;-85
2021/09/04 12:31:52;;;;;;;;;;;11.00;80.70;;;;;;5014770;28;20325;-84
2021/09/04 12:34:19;;;;;;;;;;;10.90;81.60;;;;;;5014781;28;19905;-83
2021/09/04 12:36:45;;;;;;;;;;;10.80;82.50;;;;;;5014867;28;19909;-86
2021/09/04 12:39:10;;;;;;;;;;;10.80;83.70;;;;;;5016342;28;19909;-85
2021/09/04 12:41:36;;;;;;;;;;;11.10;84.70;;;;;;5020974;28;19917;-84
2021/09/04 12:44:03;;;;;;;;;;;11.20;83.90;;;;;;5015637;28;19924;-84
2021/09/04 12:46:30;;;;;;;;;;;11.30;83.60;;;;;;5014692;28;20373;-85
2021/09/04 12:48:56;;;;;;;;;;;11.40;83.60;;;;;;5014785;28;19996;-83
2021/09/04 12:51:30;;;;;;;;;;;11.50;83.30;;;;;;5013693;28;20422;-83
2021/09/04 12:54:03;;;;;;;;;;;11.60;82.50;;;;;;5017316;28;19928;-84
2021/09/04 12:56:43;;;;;;;;;;;11.60;81.90;;;;;;5012203;28;19906;-84
2021/09/04 12:59:10;;;;;;;;;;;11.90;82.30;;;;;;5014763;28;19967;-85
2021/09/04 13:01:36;;;;;;;;;;;12.10;81.70;;;;;;5014348;28;19992;-84
2021/09/04 13:04:03;;;;;;;;;;;12.30;81.40;;;;;;5014262;28;19906;-87
2021/09/04 13:06:29;;;;;;;;;;;12.40;80.60;;;;;;5014321;28;19936;-83
2021/09/04 13:08:54;;;;;;;;;;;12.30;79.70;;;;;;5014158;28;20291;-85
2021/09/04 13:11:20;;;;;;;;;;;12.10;79.40;;;;;;5017424;28;20268;-85
2021/09/04 13:13:46;;;;;;;;;;;12.00;79.00;;;;;;5015211;28;19917;-85
2021/09/04 13:16:11;;;;;;;;;;;11.90;78.50;;;;;;5014308;28;20004;-85
2021/09/04 13:18:37;;;;;;;;;;;11.80;78.60;;;;;;5013808;28;19933;-83
2021/09/04 13:21:02;;;;;;;;;;;11.70;78.30;;;;;;5014080;28;19905;-84
2021/09/04 13:23:28;;;;;;;;;;;11.70;77.90;;;;;;5013623;28;19948;-85
2021/09/04 13:25:54;;;;;;;;;;;11.60;77.40;;;;;;5013448;28;19951;-83
2021/09/04 13:28:19;;;;;;;;;;;11.60;76.90;;;;;;5013448;28;19910;-84
2021/09/04 13:30:45;;;;;;;;;;;11.60;75.70;;;;;;5014077;28;19910;-85
2021/09/04 13:33:10;;;;;;;;;;;11.60;74.60;;;;;;5014435;28;19905;-83
2021/09/04 13:35:36;;;;;;;;;;;11.70;74.10;;;;;;5014872;28;20032;-85
2021/09/04 13:38:02;;;;;;;;;;;11.90;74.90;;;;;;5014429;28;19913;-85
2021/09/04 13:40:27;;;;;;;;;;;12.10;74.60;;;;;;5015654;28;19952;-86
2021/09/04 13:42:53;;;;;;;;;;;12.20;74.90;;;;;;5013673;28;19905;-85
2021/09/04 13:45:19;;;;;;;;;;;12.30;74.90;;;;;;5012043;28;20342;-83
2021/09/04 13:47:44;;;;;;;;;;;12.30;74.30;;;;;;5013842;28;19963;-83
2021/09/04 13:50:10;;;;;;;;;;;12.20;74.30;;;;;;5012151;28;19909;-87
2021/09/04 13:52:36;;;;;;;;;;;12.20;74.30;;;;;;5012506;28;19956;-86
2021/09/04 13:55:01;;;;;;;;;;;12.20;74.00;;;;;;5013084;28;20317;-85
2021/09/04 13:57:27;;;;;;;;;;;12.20;73.80;;;;;;5013514;28;20378;-82
2021/09/04 13:59:53;;;;;;;;;;;12.10;73.10;;;;;;5012091;28;20000;-84
2021/09/04 14:02:18;;;;;;;;;;;12.10;73.30;;;;;;5013436;28;19905;-85
2021/09/04 14:04:44;;;;;;;;;;;12.10;73.60;;;;;;5001108;28;19949;-85
2021/09/04 14:07:10;;;;;;;;;;;12.10;73.10;;;;;;5011340;28;19906;-86
2021/09/04 14:09:37;;;;;;;;;;;12.20;73.00;;;;;;5014328;28;20298;-85
2021/09/04 14:12:03;;;;;;;;;;;12.30;72.50;;;;;;5011910;28;19948;-85
2021/09/04 14:14:30;;;;;;;;;;;12.30;72.30;;;;;;5013173;28;19956;-86
2021/09/04 14:16:56;;;;;;;;;;;12.30;72.00;;;;;;5013171;28;20016;-84
2021/09/04 14:19:21;;;;;;;;;;;12.10;70.50;;;;;;5013208;28;20481;-84